Flight Track Log - Related Links

Times and Time Zones

All times are in EDT time to prevent confusion due to time zone crossing. See the N960DL flight status page for this flight to view local times or setup timezone preferences in your user account.

Time Position Orientation Groundspeed Altitude Reporting Facility
EDT Latitude Longitude Course Direction KTS MPH feet Rate Location/Type
Sun 03:44:16 PM 35.8622 -78.8214 236° Southwest 187 215 1,600  Level Washington Center
Sun 03:45:11 PM 35.8358 -78.8689 236° Southwest 214 246 2,900 1,983 Climbing Washington Center
Sun 03:46:11 PM 35.8125 -78.9525 251° West 281 323 5,400 2,769 Climbing Washington Center
Sun 03:47:21 PM 35.8239 -79.0683 277° West 276 318 8,900 2,538 Climbing Washington Center
Sun 03:48:21 PM 35.8253 -79.1631 271° West 274 315 10,900 1,884 Climbing Washington Center
Sun 03:49:22 PM 35.8325 -79.2658 275° West 322 371 12,700 1,980 Climbing Washington Center
Sun 03:51:00 PM 35.8187 -79.4316 262° West  Level FlightAware Approximate
Sun 03:51:44 PM 35.8042 -79.5836 262° West 380 437 17,600  Level Atlanta Center
Sun 03:52:44 PM 35.7819 -79.7153 258° West 393 452 19,300 1,700 Climbing Atlanta Center
Sun 03:53:44 PM 35.7592 -79.8394 257° West 407 468 21,000 1,800 Climbing Atlanta Center
Sun 03:54:44 PM 35.7344 -79.9789 258° West 418 481 22,900 1,500 Climbing Atlanta Center
Sun 03:55:44 PM 35.7100 -80.1258 258° West 418 481 24,000 1,050 Climbing Atlanta Center
Sun 03:56:44 PM 35.6797 -80.2883 257° West 439 505 25,000 1,300 Climbing Atlanta Center
Sun 03:57:44 PM 35.6425 -80.4356 253° West 455 524 26,600 1,500 Climbing Atlanta Center
Sun 03:58:44 PM 35.5986 -80.5806 250° West 460 529 28,000 700 Climbing Atlanta Center
Sun 03:59:44 PM 35.5544 -80.7203 249° West 455 524 28,000  Level Atlanta Center
Sun 04:00:44 PM 35.5081 -80.8600 248° West 455 524 28,000  Level Atlanta Center
Sun 04:01:44 PM 35.4617 -81.0044 249° West 455 524 28,000  Level Atlanta Center
Sun 04:02:44 PM 35.4189 -81.1336 248° West 455 524 28,000  Level Atlanta Center
Sun 04:03:44 PM 35.3742 -81.2753 249° West 455 524 28,000  Level Atlanta Center
Sun 04:04:44 PM 35.3314 -81.4117 249° West 442 509 28,000  Level Atlanta Center
Sun 04:05:44 PM 35.2842 -81.5556 248° West 430 495 28,000  Level Atlanta Center
Sun 04:06:44 PM 35.2408 -81.6864 248° West 418 481 28,000  Level Atlanta Center
Sun 04:07:44 PM 35.1956 -81.8225 248° West 418 481 28,000  Level Atlanta Center
Sun 04:08:44 PM 35.1497 -81.9558 247° West 425 489 28,000  Level Atlanta Center
Sun 04:09:44 PM 35.1039 -82.0914 248° West 425 489 28,000  Level Atlanta Center
Sun 04:10:44 PM 35.0603 -82.2269 249° West 431 496 28,000  Level Atlanta Center
Sun 04:11:44 PM 35.0222 -82.3369 247° West 425 489 28,000  Level Atlanta Center
Sun 04:12:44 PM 34.9800 -82.4644 248° West 414 476 28,000 -650 Level Atlanta Center
Sun 04:13:44 PM 34.9231 -82.5797 239° Southwest 402 463 26,700 -1,200 Descending Atlanta Center
Sun 04:14:44 PM 34.8553 -82.6819 231° Southwest 402 463 25,600 -1,200 Descending Atlanta Center
Sun 04:15:44 PM 34.7833 -82.7894 231° Southwest 382 440 24,300 -800 Descending Atlanta Center
Sun 04:16:44 PM 34.7217 -82.8814 231° Southwest 374 430 24,000 -150 Descending Atlanta Center
Sun 04:17:44 PM 34.6517 -82.9733 227° Southwest 374 430 24,000 -300 Level Atlanta Center
Sun 04:18:44 PM 34.5961 -83.0672 234° Southwest 357 411 23,400 -750 Descending Atlanta Center
Sun 04:19:44 PM 34.5339 -83.1486 227° Southwest 340 391 22,500 -1,350 Descending Atlanta Center
Sun 04:20:44 PM 34.4636 -83.2175 219° Southwest 330 380 20,700 -1,800 Descending Atlanta Center
Sun 04:21:44 PM 34.3908 -83.2761 214° Southwest 330 380 18,900 -1,500 Descending Atlanta Center
Sun 04:22:44 PM 34.3119 -83.3472 217° Southwest 348 400 17,700 -1,650 Descending Atlanta Center
Sun 04:23:44 PM 34.2331 -83.4183 217° Southwest 354 407 15,600 -2,050 Descending Atlanta Center
Sun 04:24:44 PM 34.1603 -83.4864 218° Southwest 344 396 13,600 -1,800 Descending Atlanta Center
Sun 04:25:44 PM 34.0897 -83.5547 219° Southwest 331 381 12,000 -800 Descending Atlanta Center
Sun 04:26:44 PM 34.0106 -83.6278 217° Southwest 331 381 12,000  Level Atlanta Center
Sun 04:27:44 PM 33.9419 -83.6958 219° Southwest 325 374 12,000  Level Atlanta Center
Sun 04:28:44 PM 33.8775 -83.7561 218° Southwest 313 360 12,000 -450 Level Atlanta Center
Sun 04:29:44 PM 33.8169 -83.8189 221° Southwest 301 346 11,100 -1,200 Descending Atlanta Center
Sun 04:30:44 PM 33.7586 -83.8739 218° Southwest 285 328 9,600 -1,300 Descending Atlanta Center
Sun 04:31:44 PM 33.7067 -83.9264 220° Southwest 266 306 8,500 -1,100 Descending Atlanta Center
Sun 04:32:44 PM 33.6606 -83.9739 221° Southwest 231 266 7,400 -1,200 Descending Atlanta Center
Sun 04:33:44 PM 33.6356 -84.0339 243° Southwest 206 237 6,100 -700 Descending Atlanta Center
Sun 04:34:44 PM 33.6294 -84.0961 263° West 201 231 6,000 -396 Descending Atlanta Center
Sun 04:35:15 PM 33.6333 -84.1333 277° West 193 222 5,500 -1,055 Descending Atlanta TRACON
Sun 04:36:15 PM 33.6333 -84.2000 270° West 177 204 4,400 -950 Descending Atlanta TRACON
Sun 04:37:15 PM 33.6333 -84.2500 270° West 176 203 3,600 -850 Descending Atlanta TRACON
Sun 04:38:15 PM 33.6333 -84.3167 270° West 174 200 2,700 -857 Descending Atlanta TRACON
Sun 04:39:21 PM 33.6333 -84.3667 270° West 153 176 1,800 -818 Descending Atlanta TRACON
Sun 04:41:00 PM 33.6367 -84.4279 270° West  Level Estimated
Sun 04:48:00 PM 33.6367 -84.4279 64° Northeast  Level Estimated
Sun 04:49:00 PM 33.6367 -84.4279 64° Northeast  Level Estimated

Login

Don't have an account? Register now (free) for customized features, flight alerts, and more!